createdAt,value
2018-08-20T00:00:18.973Z,61.50
2018-08-20T00:02:47.843Z,61.60
2018-08-20T00:05:16.717Z,61.80
2018-08-20T00:07:45.569Z,62.20
2018-08-20T00:10:14.418Z,62.30
2018-08-20T00:12:43.265Z,64.30
2018-08-20T00:15:12.131Z,64.80
2018-08-20T00:17:40.968Z,64.90
2018-08-20T00:20:09.807Z,65.10
2018-08-20T00:22:38.650Z,65.40
2018-08-20T00:25:07.487Z,65.90
2018-08-20T00:27:36.332Z,65.90
2018-08-20T00:30:05.173Z,65.90
2018-08-20T00:32:34.022Z,65.90
2018-08-20T00:35:02.866Z,65.80
2018-08-20T00:37:32.444Z,65.50
2018-08-20T00:40:01.279Z,65.30
2018-08-20T00:42:30.132Z,65.00
2018-08-20T00:44:58.982Z,65.50
2018-08-20T00:47:27.832Z,65.60
2018-08-20T00:49:57.412Z,65.80
2018-08-20T00:52:26.258Z,66.50
2018-08-20T00:54:55.097Z,65.60
2018-08-20T00:57:23.954Z,65.70
2018-08-20T00:59:52.805Z,66.00
2018-08-20T01:02:21.656Z,66.30
2018-08-20T01:04:50.499Z,66.40
2018-08-20T01:07:19.347Z,66.80
2018-08-20T01:09:48.196Z,66.80
2018-08-20T01:12:17.050Z,66.90
2018-08-20T01:14:45.915Z,66.90
2018-08-20T01:17:15.506Z,66.80
2018-08-20T01:19:44.352Z,67.00
2018-08-20T01:22:13.200Z,66.90
2018-08-20T01:24:42.037Z,67.10
2018-08-20T01:27:10.867Z,67.20
2018-08-20T01:29:39.724Z,67.40
2018-08-20T01:32:08.567Z,67.10
2018-08-20T01:34:38.145Z,67.30
2018-08-20T01:37:06.986Z,67.50
2018-08-20T01:39:35.830Z,67.70
2018-08-20T01:42:04.666Z,67.90
2018-08-20T01:44:33.503Z,68.00
2018-08-20T01:47:02.351Z,68.60
2018-08-20T01:49:31.199Z,69.20
2018-08-20T01:52:00.778Z,70.60
2018-08-20T01:54:29.619Z,71.90
2018-08-20T01:56:58.462Z,72.80
2018-08-20T02:01:56.753Z,73.80
2018-08-20T02:04:25.611Z,74.30
2018-08-20T02:06:54.457Z,75.60
2018-08-20T02:09:24.041Z,76.70
2018-08-20T02:11:52.888Z,77.20
2018-08-20T02:14:21.725Z,77.40
2018-08-20T02:16:50.576Z,77.80
2018-08-20T02:19:19.410Z,78.10
2018-08-20T02:21:48.261Z,78.90
2018-08-20T02:24:17.104Z,79.70
2018-08-20T02:26:46.694Z,80.30
2018-08-20T02:29:15.539Z,80.80
2018-08-20T02:31:44.377Z,80.80
2018-08-20T02:34:13.214Z,81.20
2018-08-20T02:36:42.069Z,81.40
2018-08-20T02:39:11.659Z,81.80
2018-08-20T02:41:40.520Z,81.70
2018-08-20T02:44:09.354Z,82.10
2018-08-20T02:46:38.935Z,82.40
2018-08-20T02:49:07.785Z,82.50
2018-08-20T02:51:36.626Z,83.20
2018-08-20T02:54:05.468Z,83.60
2018-08-20T02:56:34.306Z,83.10
2018-08-20T02:59:03.896Z,82.90
2018-08-20T03:01:32.760Z,82.60
2018-08-20T03:04:01.621Z,82.40
2018-08-20T03:06:30.492Z,82.10
2018-08-20T03:08:59.365Z,82.10
2018-08-20T03:11:28.236Z,82.10
2018-08-20T03:13:57.098Z,82.30
2018-08-20T03:16:26.002Z,82.80
2018-08-20T03:18:55.566Z,84.10
2018-08-20T03:21:24.409Z,84.30
2018-08-20T03:23:53.249Z,84.20
2018-08-20T03:26:22.084Z,84.40
2018-08-20T03:28:50.931Z,84.30
2018-08-20T03:31:19.767Z,84.20
2018-08-20T03:33:48.599Z,84.20
2018-08-20T03:36:17.459Z,84.30
2018-08-20T03:38:46.304Z,84.70
2018-08-20T03:41:15.158Z,85.10
2018-08-20T03:43:44.041Z,84.80
2018-08-20T03:46:12.883Z,85.10
2018-08-20T03:48:41.735Z,85.10
2018-08-20T03:51:10.582Z,85.50
2018-08-20T03:53:39.442Z,85.80
2018-08-20T03:56:08.268Z,86.20
2018-08-20T03:58:37.858Z,86.70
2018-08-20T04:01:06.701Z,87.10
2018-08-20T04:03:35.543Z,87.00
2018-08-20T04:06:05.146Z,87.40
2018-08-20T04:08:33.983Z,87.30
2018-08-20T04:11:02.825Z,87.20
2018-08-20T04:13:32.422Z,87.00
2018-08-20T04:16:01.275Z,86.60
2018-08-20T04:18:30.113Z,86.20
2018-08-20T04:20:58.961Z,86.30
2018-08-20T04:23:27.819Z,86.30
2018-08-20T04:25:56.676Z,86.40
2018-08-20T04:28:25.530Z,86.90
2018-08-20T04:30:54.372Z,86.90
2018-08-20T04:33:23.207Z,87.10
2018-08-20T04:35:52.045Z,86.90
2018-08-20T04:38:20.882Z,86.70
2018-08-20T04:40:49.732Z,86.60
2018-08-20T04:43:18.569Z,86.90
2018-08-20T04:45:47.410Z,87.00
2018-08-20T04:48:16.245Z,87.10
2018-08-20T04:50:45.179Z,87.00
2018-08-20T04:53:13.925Z,87.00
2018-08-20T04:55:42.765Z,87.10
2018-08-20T04:58:11.612Z,87.30
2018-08-20T05:00:40.455Z,87.40
2018-08-20T05:03:09.302Z,87.30
2018-08-20T05:05:38.145Z,87.60
2018-08-20T05:08:06.989Z,87.90
2018-08-20T05:10:36.568Z,88.10
2018-08-20T05:13:05.405Z,87.90
2018-08-20T05:15:34.252Z,88.80
2018-08-20T05:18:03.095Z,88.00
2018-08-20T05:20:31.934Z,87.30
2018-08-20T05:23:00.793Z,86.90
2018-08-20T05:25:29.621Z,86.40
2018-08-20T05:27:59.208Z,86.20
2018-08-20T05:30:28.042Z,85.90
2018-08-20T05:32:56.885Z,85.80
2018-08-20T05:35:25.726Z,85.40
2018-08-20T05:37:54.570Z,85.20
2018-08-20T05:40:23.419Z,84.60
2018-08-20T05:42:52.262Z,84.20
2018-08-20T05:45:21.102Z,83.70
2018-08-20T05:47:49.956Z,83.10
2018-08-20T05:50:19.545Z,82.80
2018-08-20T05:52:48.378Z,83.30
2018-08-20T05:55:17.266Z,82.60
2018-08-20T05:57:46.090Z,82.20
2018-08-20T06:00:14.924Z,81.60
2018-08-20T06:02:43.771Z,81.60
2018-08-20T06:05:12.614Z,81.60
2018-08-20T06:07:41.456Z,81.20
2018-08-20T06:10:10.298Z,80.90
2018-08-20T06:12:39.138Z,80.70
2018-08-20T06:15:08.011Z,80.60
2018-08-20T06:17:36.832Z,80.50
2018-08-20T06:20:05.691Z,80.50
2018-08-20T06:22:34.591Z,80.50
2018-08-20T06:25:04.215Z,80.80
2018-08-20T06:27:33.728Z,80.90
2018-08-20T06:30:02.560Z,80.30
2018-08-20T06:32:32.178Z,80.10
2018-08-20T06:35:01.037Z,79.90
2018-08-20T06:37:29.896Z,80.00
2018-08-20T06:39:58.737Z,80.10
2018-08-20T06:42:27.588Z,80.10
2018-08-20T06:44:56.431Z,79.80
2018-08-20T06:47:26.017Z,80.00
2018-08-20T06:49:54.879Z,80.20
2018-08-20T06:52:23.725Z,79.10
2018-08-20T06:54:52.569Z,79.70
2018-08-20T06:57:21.412Z,79.70
2018-08-20T06:59:51.016Z,78.90
2018-08-20T07:02:19.859Z,78.40
2018-08-20T07:04:48.696Z,78.20
2018-08-20T07:07:17.550Z,78.40
2018-08-20T07:09:46.397Z,78.30
2018-08-20T07:12:15.984Z,78.20
2018-08-20T07:14:44.823Z,78.30
2018-08-20T07:17:13.671Z,77.90
2018-08-20T07:19:42.529Z,77.90
2018-08-20T07:22:11.360Z,78.10
2018-08-20T07:24:40.205Z,77.70
2018-08-20T07:27:09.050Z,77.10
2018-08-20T07:32:19.316Z,77.00
2018-08-20T07:34:48.155Z,76.90
2018-08-20T07:37:16.989Z,76.90
2018-08-20T07:39:46.583Z,76.50
2018-08-20T07:42:15.457Z,76.10
2018-08-20T07:44:44.278Z,75.90
2018-08-20T07:47:13.115Z,76.10
2018-08-20T07:49:41.967Z,76.20
2018-08-20T07:52:10.802Z,76.20
2018-08-20T07:54:39.644Z,76.30
2018-08-20T07:57:08.498Z,76.00
2018-08-20T07:59:37.322Z,75.80
2018-08-20T08:02:06.911Z,75.30
2018-08-20T08:04:36.572Z,76.10
2018-08-20T08:07:05.353Z,74.70
2018-08-20T08:09:34.196Z,74.50
2018-08-20T08:12:03.077Z,74.50
2018-08-20T08:14:31.939Z,74.30
2018-08-20T08:17:00.773Z,74.10
2018-08-20T08:19:29.612Z,73.70
2018-08-20T08:21:58.447Z,73.40
2018-08-20T08:24:27.301Z,73.40
2018-08-20T08:26:56.129Z,73.50
2018-08-20T08:29:24.995Z,73.90
2018-08-20T08:31:53.831Z,73.80
2018-08-20T08:34:22.695Z,72.40
2018-08-20T08:36:51.526Z,72.70
2018-08-20T08:39:20.370Z,73.00
2018-08-20T08:41:49.217Z,72.30
2018-08-20T08:44:18.048Z,72.70
2018-08-20T08:46:46.896Z,72.10
2018-08-20T08:49:15.734Z,71.90
2018-08-20T08:51:44.586Z,71.50
2018-08-20T08:54:13.429Z,71.20
2018-08-20T08:56:42.304Z,71.20
2018-08-20T08:59:11.894Z,71.00
2018-08-20T09:01:40.741Z,70.80
2018-08-20T09:04:09.583Z,70.30
2018-08-20T09:06:38.454Z,70.70
2018-08-20T09:09:07.311Z,70.70
2018-08-20T09:11:36.346Z,70.60
2018-08-20T09:14:05.151Z,69.50
2018-08-20T09:16:34.743Z,69.50
2018-08-20T09:19:03.608Z,69.20
2018-08-20T09:21:32.441Z,69.30
2018-08-20T09:24:01.316Z,69.00
2018-08-20T09:26:30.151Z,68.60
2018-08-20T09:28:58.991Z,68.20
2018-08-20T09:31:27.853Z,68.10
2018-08-20T09:33:56.686Z,68.10
2018-08-20T09:36:25.549Z,67.60
2018-08-20T09:38:54.386Z,67.50
2018-08-20T09:41:23.229Z,68.30
2018-08-20T09:43:52.179Z,67.90
2018-08-20T09:46:20.944Z,67.70
2018-08-20T09:48:49.794Z,67.90
2018-08-20T09:51:18.645Z,67.60
2018-08-20T09:53:47.496Z,67.40
2018-08-20T09:56:16.350Z,67.40
2018-08-20T09:58:45.187Z,66.60
2018-08-20T10:01:14.029Z,66.40
2018-08-20T10:03:42.876Z,66.30
2018-08-20T10:06:11.727Z,65.10
2018-08-20T10:08:40.558Z,64.80
2018-08-20T10:11:10.156Z,64.30
2018-08-20T10:16:08.434Z,64.10
2018-08-20T10:18:37.303Z,64.50
2018-08-20T10:21:06.138Z,64.40
2018-08-20T10:23:35.708Z,63.60
2018-08-20T10:26:04.542Z,62.70
2018-08-20T10:28:33.466Z,62.50
2018-08-20T10:31:02.306Z,62.50
2018-08-20T10:33:31.138Z,62.40
2018-08-20T10:35:59.968Z,62.50
2018-08-20T10:38:28.832Z,62.70
2018-08-20T10:40:57.672Z,62.20
2018-08-20T10:43:27.286Z,62.20
2018-08-20T10:48:33.040Z,61.60
2018-08-20T10:51:02.693Z,62.20
2018-08-20T10:53:31.473Z,60.90
2018-08-20T10:56:00.319Z,61.50
2018-08-20T10:58:29.180Z,61.60
2018-08-20T11:00:58.034Z,62.20
2018-08-20T11:03:26.886Z,62.40
2018-08-20T11:05:55.727Z,62.80
2018-08-20T11:08:24.567Z,63.10
2018-08-20T11:10:53.548Z,63.20
2018-08-20T11:13:22.312Z,63.30
2018-08-20T11:15:51.162Z,63.50
2018-08-20T11:18:20.781Z,63.80
2018-08-20T11:20:50.347Z,63.40
2018-08-20T11:23:19.188Z,63.30
2018-08-20T11:25:48.038Z,63.20
2018-08-20T11:28:16.878Z,62.90
2018-08-20T11:30:45.726Z,63.00
2018-08-20T11:33:15.314Z,62.60
2018-08-20T11:35:44.152Z,63.00
2018-08-20T11:38:12.987Z,63.20
2018-08-20T11:40:41.830Z,64.00
2018-08-20T11:43:10.681Z,64.20
2018-08-20T11:45:39.520Z,64.50
2018-08-20T11:48:08.363Z,64.60
2018-08-20T11:50:37.216Z,64.30
2018-08-20T11:53:06.054Z,64.30
2018-08-20T11:55:35.639Z,64.30
2018-08-20T11:58:04.482Z,64.00
2018-08-20T12:00:33.326Z,64.20
2018-08-20T12:03:02.909Z,64.20
2018-08-20T12:05:31.750Z,64.00
2018-08-20T12:08:00.580Z,64.50
2018-08-20T12:10:29.426Z,65.30
2018-08-20T12:12:58.266Z,65.40
2018-08-20T12:15:27.111Z,65.00
2018-08-20T12:17:55.946Z,65.20
2018-08-20T12:20:24.777Z,65.40
2018-08-20T12:22:53.624Z,65.20
2018-08-20T12:25:22.464Z,64.60
2018-08-20T12:27:51.313Z,63.80
2018-08-20T12:30:20.175Z,63.70
2018-08-20T12:32:49.023Z,63.60
2018-08-20T12:35:17.902Z,64.50
2018-08-20T12:37:46.738Z,63.60
2018-08-20T12:40:15.640Z,63.70
2018-08-20T12:42:44.435Z,64.00
2018-08-20T12:45:13.275Z,63.30
2018-08-20T12:47:42.860Z,63.40
2018-08-20T12:50:11.732Z,63.20
2018-08-20T12:52:40.557Z,62.80
2018-08-20T12:55:10.154Z,62.10
2018-08-20T12:57:39.014Z,61.60
2018-08-20T13:00:07.853Z,61.00
2018-08-20T13:02:36.685Z,60.80
2018-08-20T13:05:05.526Z,61.20
2018-08-20T13:07:34.385Z,61.30
2018-08-20T13:10:03.216Z,61.00
2018-08-20T13:12:32.068Z,60.70
2018-08-20T13:15:01.686Z,60.60
2018-08-20T13:17:30.524Z,60.70
2018-08-20T13:19:59.378Z,60.60
2018-08-20T13:22:28.227Z,60.20
2018-08-20T13:24:57.081Z,59.80
2018-08-20T13:27:25.960Z,60.30
2018-08-20T13:29:54.787Z,59.70
2018-08-20T13:32:23.642Z,59.70
2018-08-20T13:34:52.488Z,60.10
2018-08-20T13:37:21.387Z,59.70
2018-08-20T13:39:50.191Z,59.60
2018-08-20T13:42:19.050Z,59.30
2018-08-20T13:44:47.904Z,59.30
2018-08-20T13:47:16.732Z,59.10
2018-08-20T13:49:45.570Z,59.40
2018-08-20T13:52:14.403Z,60.00
2018-08-20T13:54:43.257Z,59.50
2018-08-20T13:57:12.086Z,58.90
2018-08-20T13:59:40.970Z,58.50
2018-08-20T14:02:09.777Z,58.40
2018-08-20T14:04:38.617Z,57.50
2018-08-20T14:07:07.452Z,57.60
2018-08-20T14:09:37.047Z,57.70
2018-08-20T14:12:05.888Z,57.20
2018-08-20T14:14:34.751Z,56.70
2018-08-20T14:17:04.331Z,56.50
2018-08-20T14:19:33.199Z,56.70
2018-08-20T14:22:02.053Z,56.20
2018-08-20T14:24:30.911Z,55.90
2018-08-20T14:27:00.035Z,55.20
2018-08-20T14:29:28.628Z,55.30
2018-08-20T14:31:57.495Z,55.70
2018-08-20T14:34:26.346Z,54.90
2018-08-20T14:36:55.213Z,55.50
2018-08-20T14:39:24.032Z,55.30
2018-08-20T14:41:52.884Z,55.20
2018-08-20T14:44:21.718Z,54.50
2018-08-20T14:46:50.563Z,54.40
2018-08-20T14:49:19.411Z,55.10
2018-08-20T14:51:49.038Z,54.50
2018-08-20T14:54:17.884Z,54.40
2018-08-20T14:56:46.724Z,55.00
2018-08-20T14:59:15.584Z,55.40
2018-08-20T15:01:44.440Z,55.10
2018-08-20T15:04:13.295Z,55.10
2018-08-20T15:06:42.143Z,54.00
2018-08-20T15:09:11.090Z,53.60
2018-08-20T15:11:39.839Z,53.40
2018-08-20T15:14:09.461Z,53.50
2018-08-20T15:16:38.306Z,52.80
2018-08-20T15:19:07.156Z,53.00
2018-08-20T15:21:36.003Z,53.20
2018-08-20T15:24:04.853Z,52.90
2018-08-20T15:26:33.688Z,53.00
2018-08-20T15:29:03.263Z,54.00
2018-08-20T15:31:32.133Z,53.20
2018-08-20T15:34:00.975Z,54.10
2018-08-20T15:36:29.814Z,54.20
2018-08-20T15:38:58.645Z,54.30
2018-08-20T15:41:28.248Z,54.70
2018-08-20T15:43:57.192Z,55.10
2018-08-20T15:46:25.944Z,55.40
2018-08-20T15:48:55.534Z,55.70
2018-08-20T15:51:24.390Z,55.80
2018-08-20T15:53:53.229Z,55.40
2018-08-20T15:56:22.817Z,54.50
2018-08-20T16:01:21.121Z,54.50
2018-08-20T16:03:50.721Z,54.70
2018-08-20T16:06:19.855Z,55.20
2018-08-20T16:08:48.454Z,55.30
2018-08-20T16:11:17.292Z,55.90
2018-08-20T16:13:46.144Z,56.20
2018-08-20T16:16:14.994Z,56.10
2018-08-20T16:18:43.854Z,56.70
2018-08-20T16:21:12.741Z,56.30
2018-08-20T16:23:41.585Z,56.10
2018-08-20T16:26:10.476Z,55.80
2018-08-20T16:28:39.307Z,55.90
2018-08-20T16:31:08.150Z,56.30
2018-08-20T16:33:36.996Z,56.50
2018-08-20T16:36:05.837Z,56.90
2018-08-20T16:38:34.689Z,57.10
2018-08-20T16:41:04.294Z,57.20
2018-08-20T16:43:34.068Z,57.00
2018-08-20T16:46:02.890Z,56.60
2018-08-20T16:48:31.742Z,56.70
2018-08-20T16:51:00.607Z,56.60
2018-08-20T16:53:29.428Z,55.90
2018-08-20T16:55:58.269Z,56.10
2018-08-20T16:58:27.111Z,56.70
2018-08-20T17:00:55.958Z,56.20
2018-08-20T17:03:24.838Z,56.60
2018-08-20T17:05:53.693Z,56.60
2018-08-20T17:08:22.535Z,56.30
2018-08-20T17:10:51.379Z,56.80
2018-08-20T17:13:20.232Z,56.50
2018-08-20T17:15:49.090Z,55.70
2018-08-20T17:18:17.962Z,55.90
2018-08-20T17:20:47.567Z,56.30
2018-08-20T17:23:16.409Z,56.50
2018-08-20T17:25:45.261Z,56.60
2018-08-20T17:28:14.133Z,57.50
2018-08-20T17:30:43.727Z,56.60
2018-08-20T17:33:12.569Z,56.80
2018-08-20T17:35:41.414Z,56.60
2018-08-20T17:38:11.009Z,56.40
2018-08-20T17:40:39.861Z,56.50
2018-08-20T17:43:08.696Z,56.60
2018-08-20T17:45:37.749Z,56.70
2018-08-20T17:48:07.247Z,56.90
2018-08-20T17:50:36.063Z,56.80
2018-08-20T17:53:06.753Z,57.20
2018-08-20T17:55:35.594Z,57.20
2018-08-20T17:58:04.455Z,57.50
2018-08-20T18:00:33.291Z,57.60
2018-08-20T18:03:02.158Z,57.80
2018-08-20T18:05:30.992Z,57.50
2018-08-20T18:07:59.833Z,57.90
2018-08-20T18:10:28.998Z,58.00
2018-08-20T18:12:57.753Z,58.10
2018-08-20T18:15:26.602Z,58.20
2018-08-20T18:17:55.451Z,58.50
2018-08-20T18:20:24.305Z,58.80
2018-08-20T18:22:53.151Z,58.90
2018-08-20T18:25:21.996Z,59.20
2018-08-20T18:27:51.584Z,59.30
2018-08-20T18:30:20.489Z,59.70
2018-08-20T18:32:49.275Z,59.80
2018-08-20T18:35:18.135Z,60.30
2018-08-20T18:37:47.050Z,60.50
2018-08-20T18:40:15.966Z,60.30
2018-08-20T18:42:44.826Z,60.50
2018-08-20T18:47:43.124Z,61.00
2018-08-20T18:50:11.999Z,61.10
2018-08-20T18:52:40.864Z,60.90
2018-08-20T18:55:09.706Z,61.00
2018-08-20T18:57:38.554Z,61.10
2018-08-20T19:00:07.434Z,61.90
2018-08-20T19:02:36.288Z,62.30
2018-08-20T19:05:05.144Z,62.30
2018-08-20T19:07:33.999Z,62.40
2018-08-20T19:10:02.852Z,62.70
2018-08-20T19:12:32.481Z,63.20
2018-08-20T19:15:01.348Z,63.20
2018-08-20T19:17:30.956Z,63.20
2018-08-20T19:19:59.814Z,63.20
2018-08-20T19:22:28.701Z,63.20
2018-08-20T19:24:57.500Z,64.10
2018-08-20T19:27:26.365Z,63.70
2018-08-20T19:29:55.209Z,63.90
2018-08-20T19:32:24.808Z,64.20
2018-08-20T19:34:54.428Z,64.50
2018-08-20T19:37:23.278Z,64.50
2018-08-20T19:39:52.119Z,65.00
2018-08-20T19:42:21.022Z,65.20
2018-08-20T19:44:49.838Z,65.50
2018-08-20T19:47:18.685Z,65.50
2018-08-20T19:49:47.537Z,65.80
2018-08-20T19:52:16.394Z,66.10
2018-08-20T19:54:45.225Z,66.40
2018-08-20T19:57:14.126Z,66.50
2018-08-20T19:59:42.933Z,66.40
2018-08-20T20:02:11.804Z,66.50
2018-08-20T20:04:40.679Z,66.70
2018-08-20T20:07:09.557Z,66.10
2018-08-20T20:09:38.408Z,66.10
2018-08-20T20:12:07.281Z,66.10
2018-08-20T20:14:36.130Z,66.50
2018-08-20T20:17:04.971Z,66.70
2018-08-20T20:19:33.819Z,67.10
2018-08-20T20:22:02.679Z,67.40
2018-08-20T20:24:31.555Z,67.60
2018-08-20T20:27:00.412Z,67.90
2018-08-20T20:29:29.295Z,68.20
2018-08-20T20:31:58.891Z,68.20
2018-08-20T20:34:27.731Z,68.50
2018-08-20T20:36:56.582Z,68.80
2018-08-20T20:39:25.457Z,68.70
2018-08-20T20:41:54.306Z,69.00
2018-08-20T20:44:23.902Z,69.20
2018-08-20T20:46:53.508Z,69.40
2018-08-20T20:49:22.383Z,69.40
2018-08-20T20:51:51.211Z,69.50
2018-08-20T20:54:20.822Z,69.80
2018-08-20T20:56:50.403Z,69.60
2018-08-20T20:59:19.256Z,69.80
2018-08-20T21:01:48.129Z,69.90
2018-08-20T21:04:17.698Z,70.10
2018-08-20T21:06:46.598Z,70.10
2018-08-20T21:09:15.449Z,70.70
2018-08-20T21:11:44.291Z,70.10
2018-08-20T21:14:13.252Z,70.20
2018-08-20T21:19:11.505Z,70.00
2018-08-20T21:21:40.343Z,70.20
2018-08-20T21:24:09.210Z,70.20
2018-08-20T21:26:38.050Z,70.30
2018-08-20T21:29:06.911Z,70.30
2018-08-20T21:31:35.754Z,70.20
2018-08-20T21:34:04.616Z,70.10
2018-08-20T21:36:33.460Z,70.30
2018-08-20T21:39:02.335Z,70.30
2018-08-20T21:41:31.195Z,70.30
2018-08-20T21:44:00.062Z,70.60
2018-08-20T21:46:29.662Z,70.70
2018-08-20T21:48:59.266Z,70.80
2018-08-20T21:51:28.110Z,71.00
2018-08-20T21:53:56.961Z,70.80
2018-08-20T21:56:25.816Z,71.00
2018-08-20T21:58:54.665Z,71.30
2018-08-20T22:01:23.590Z,71.00
2018-08-20T22:03:52.366Z,71.00
2018-08-20T22:06:21.210Z,71.30
2018-08-20T22:08:50.052Z,72.30
2018-08-20T22:11:18.895Z,72.00
2018-08-20T22:13:47.751Z,72.40
2018-08-20T22:16:16.602Z,72.70
2018-08-20T22:18:45.441Z,73.00
2018-08-20T22:21:14.289Z,73.40
2018-08-20T22:23:43.130Z,73.50
2018-08-20T22:26:11.978Z,73.60
2018-08-20T22:28:40.820Z,73.60
2018-08-20T22:31:10.407Z,73.80
2018-08-20T22:33:39.269Z,73.70
2018-08-20T22:36:08.105Z,73.40
2018-08-20T22:38:36.945Z,73.50
2018-08-20T22:41:05.792Z,73.60
2018-08-20T22:43:34.650Z,73.70
2018-08-20T22:46:04.235Z,73.40
2018-08-20T22:48:33.069Z,73.70
2018-08-20T22:51:02.655Z,73.70
2018-08-20T22:53:31.498Z,73.70
2018-08-20T22:56:05.281Z,73.70
2018-08-20T22:58:34.123Z,73.80
2018-08-20T23:01:02.959Z,74.00
2018-08-20T23:03:31.797Z,74.30
2018-08-20T23:06:00.653Z,74.40
2018-08-20T23:08:29.491Z,74.90
2018-08-20T23:10:58.335Z,74.00
2018-08-20T23:13:27.177Z,74.20
2018-08-20T23:15:56.768Z,74.20
2018-08-20T23:18:26.360Z,75.00
2018-08-20T23:20:55.201Z,75.10
2018-08-20T23:23:24.060Z,75.50
2018-08-20T23:25:52.902Z,76.10
2018-08-20T23:28:21.737Z,76.70
2018-08-20T23:30:50.597Z,76.60
2018-08-20T23:33:19.432Z,76.80
2018-08-20T23:35:48.287Z,77.20
2018-08-20T23:38:17.129Z,77.40
2018-08-20T23:40:46.708Z,77.40
2018-08-20T23:43:15.564Z,77.60
2018-08-20T23:45:44.411Z,77.80
2018-08-20T23:48:14.001Z,78.10
2018-08-20T23:50:42.865Z,78.40
2018-08-20T23:53:11.673Z,78.90
2018-08-20T23:58:09.956Z,79.50
